Time;durP1;ratioP1;P1;durP2;ratioP2;P2;SDS_P1;SDS_P2;PMS_P1;PMS_P2;Temp;Humidity;BMP_temperature;BMP_pressure;BME280_temperature;BME280_humidity;BME280_pressure;Samples;Min_cycle;Max_cycle;Signal;HPM_P1;HPM_P2
2020/12/28 00:02:01;;;;;;;;;;;;;;;20.34;36.60;97641.09;5057725;28;1969;-48
2020/12/28 00:04:26;;;;;;;;;;;;;;;20.34;36.67;97636.25;5057445;28;818;-49
2020/12/28 00:06:51;;;;;;;;;;;;;;;20.34;36.62;97638.28;5057942;28;1279;-48
2020/12/28 00:09:17;;;;;;;;;;;;;;;20.33;36.58;97634.72;5057956;28;988;-48
2020/12/28 00:11:42;;;;;;;;;;;;;;;20.33;36.64;97642.31;5057775;28;1964;-48
2020/12/28 00:14:07;;;;;;;;;;;;;;;20.33;36.59;97653.53;5057888;28;815;-49
2020/12/28 00:16:33;;;;;;;;;;;;;;;20.32;36.66;97661.19;5057790;28;1369;-48
2020/12/28 00:18:58;;;;;;;;;;;;;;;20.33;36.67;97659.13;5058387;28;893;-48
2020/12/28 00:21:23;;;;;;;;;;;;;;;20.32;36.67;97658.38;5057834;28;1154;-48
2020/12/28 00:23:48;;;;;;;;;;;;;;;20.32;36.61;97649.97;5056137;28;1890;-49
2020/12/28 00:26:14;;;;;;;;;;;;;;;20.31;36.68;97651.22;5047986;28;1957;-48
2020/12/28 00:28:39;;;;;;;;;;;;;;;20.30;36.51;97660.91;5038858;28;1791;-48
2020/12/28 00:31:07;;;;;;;;;;;;;;;20.31;36.63;97639.25;5056962;28;1967;-48
2020/12/28 00:33:32;;;;;;;;;;;;;;;20.30;36.70;97635.69;5057677;28;1000;-48
2020/12/28 00:35:57;;;;;;;;;;;;;;;20.29;36.66;97640.50;5057272;28;1246;-48
2020/12/28 00:38:22;;;;;;;;;;;;;;;20.30;36.77;97663.69;5057086;28;891;-48
2020/12/28 00:40:48;;;;;;;;;;;;;;;20.29;36.64;97653.75;5057314;28;912;-48
2020/12/28 00:43:13;;;;;;;;;;;;;;;20.28;36.58;97658.59;5057038;28;1894;-48
2020/12/28 00:45:38;;;;;;;;;;;;;;;20.29;36.67;97653.75;5056446;28;1731;-49
2020/12/28 00:48:03;;;;;;;;;;;;;;;20.26;36.75;97649.91;5056995;28;1487;-48
2020/12/28 00:50:29;;;;;;;;;;;;;;;20.28;36.73;97655.78;5056842;28;929;-48
2020/12/28 00:52:54;;;;;;;;;;;;;;;20.27;36.74;97659.06;5057573;28;877;-48
2020/12/28 00:55:19;;;;;;;;;;;;;;;20.26;36.75;97657.50;5067143;28;1688;-49
2020/12/28 00:57:44;;;;;;;;;;;;;;;20.26;36.66;97651.91;5075695;28;1270;-49
2020/12/28 01:00:10;;;;;;;;;;;;;;;20.25;36.62;97651.16;5076413;28;1020;-48
2020/12/28 01:02:35;;;;;;;;;;;;;;;20.25;36.70;97639.19;5076441;28;1952;-48
2020/12/28 01:05:00;;;;;;;;;;;;;;;20.25;36.68;97639.19;5077001;28;833;-49
2020/12/28 01:07:25;;;;;;;;;;;;;;;20.24;36.69;97644.00;5076996;28;1254;-48
2020/12/28 01:09:50;;;;;;;;;;;;;;;20.24;36.71;97638.38;5067104;28;1738;-48
2020/12/28 01:12:16;;;;;;;;;;;;;;;20.23;36.83;97648.06;5057043;28;843;-48
2020/12/28 01:14:41;;;;;;;;;;;;;;;20.23;36.79;97656.47;5060278;28;1654;-49
2020/12/28 01:17:06;;;;;;;;;;;;;;;20.24;36.65;97666.41;5076920;28;1368;-48
2020/12/28 01:19:32;;;;;;;;;;;;;;;20.22;36.81;97657.72;5075306;28;1638;-48
2020/12/28 01:21:57;;;;;;;;;;;;;;;20.22;36.97;97674.53;5076966;28;999;-48
2020/12/28 01:24:22;;;;;;;;;;;;;;;20.22;36.68;97670.97;5076583;28;1898;-50
2020/12/28 01:26:47;;;;;;;;;;;;;;;20.21;36.73;97673.00;5076277;28;1349;-49
2020/12/28 01:29:13;;;;;;;;;;;;;;;20.20;36.82;97676.28;5076585;28;813;-48
2020/12/28 01:31:38;;;;;;;;;;;;;;;20.21;36.70;97673.00;5076645;28;873;-48
2020/12/28 01:34:03;;;;;;;;;;;;;;;20.20;36.79;97670.69;5075931;28;1596;-49
2020/12/28 01:36:28;;;;;;;;;;;;;;;20.19;36.74;97669.91;5055892;28;1262;-48
2020/12/28 01:38:54;;;;;;;;;;;;;;;20.19;36.74;97671.91;5056114;28;919;-48
2020/12/28 01:41:19;;;;;;;;;;;;;;;20.18;36.74;97654.34;5056432;28;830;-48
2020/12/28 01:43:44;;;;;;;;;;;;;;;20.18;36.76;97659.97;5056323;28;1902;-48
2020/12/28 01:46:10;;;;;;;;;;;;;;;20.18;36.75;97665.56;5055667;28;1361;-48
2020/12/28 01:48:35;;;;;;;;;;;;;;;20.17;36.86;97666.81;5063865;28;1466;-48
2020/12/28 01:51:01;;;;;;;;;;;;;;;20.18;36.67;97667.59;5075680;28;870;-48
2020/12/28 01:53:27;;;;;;;;;;;;;;;20.17;36.75;97672.41;5075767;28;1003;-48
2020/12/28 01:55:56;;;;;;;;;;;;;;;20.17;36.92;97677.25;5060108;28;1506;-48
2020/12/28 01:58:21;;;;;;;;;;;;;;;20.16;36.75;97673.69;5036047;28;968;-48
2020/12/28 02:00:46;;;;;;;;;;;;;;;20.16;36.96;97670.09;5035660;28;885;-49
2020/12/28 02:03:13;;;;;;;;;;;;;;;20.15;36.92;97683.31;5035740;28;1965;-49
2020/12/28 02:05:39;;;;;;;;;;;;;;;20.15;36.88;97688.94;5048387;28;1652;-48
2020/12/28 02:08:05;;;;;;;;;;;;;;;20.15;36.80;97679.75;5055648;28;1421;-48
2020/12/28 02:10:30;;;;;;;;;;;;;;;20.14;36.72;97681.81;5065994;28;1490;-48
2020/12/28 02:12:55;;;;;;;;;;;;;;;20.14;36.85;97676.19;5075746;28;888;-48
2020/12/28 02:15:21;;;;;;;;;;;;;;;20.13;36.66;97673.88;5074967;28;913;-48
2020/12/28 02:17:46;;;;;;;;;;;;;;;20.12;36.74;97678.69;5075180;28;1358;-48
2020/12/28 02:20:11;;;;;;;;;;;;;;;20.12;36.86;97675.88;5075840;28;901;-50
2020/12/28 02:22:39;;;;;;;;;;;;;;;20.12;36.93;97663.94;5075762;28;1914;-48
2020/12/28 02:25:04;;;;;;;;;;;;;;;20.11;36.76;97663.16;5059872;28;1501;-48
2020/12/28 02:27:30;;;;;;;;;;;;;;;20.12;36.78;97666.72;5055397;28;1278;-48
2020/12/28 02:29:55;;;;;;;;;;;;;;;20.10;36.82;97670.00;5055610;28;822;-48
2020/12/28 02:32:20;;;;;;;;;;;;;;;20.11;36.95;97665.97;5055697;28;869;-48
2020/12/28 02:34:45;;;;;;;;;;;;;;;20.10;36.93;97670.78;5054789;28;884;-49
2020/12/28 02:37:11;;;;;;;;;;;;;;;20.09;36.80;97662.88;5055066;28;1270;-48
2020/12/28 02:39:36;;;;;;;;;;;;;;;20.09;36.83;97666.44;5068486;28;1506;-48
2020/12/28 02:42:01;;;;;;;;;;;;;;;20.08;36.87;97662.09;5075533;28;939;-48
2020/12/28 02:44:26;;;;;;;;;;;;;;;20.08;36.94;97662.09;5075200;28;1889;-48
2020/12/28 02:46:51;;;;;;;;;;;;;;;20.08;36.88;97655.72;5075027;28;1365;-47
2020/12/28 02:49:17;;;;;;;;;;;;;;;20.07;36.73;97654.97;5075597;28;1052;-49
2020/12/28 02:51:42;;;;;;;;;;;;;;;20.07;36.77;97660.56;5071707;28;1513;-48
2020/12/28 02:54:07;;;;;;;;;;;;;;;20.07;36.75;97657.75;5074775;28;1790;-48
2020/12/28 02:56:32;;;;;;;;;;;;;;;20.07;36.92;97654.16;5056238;28;1448;-49
2020/12/28 02:58:57;;;;;;;;;;;;;;;20.07;36.89;97662.56;5055190;28;948;-48
2020/12/28 03:01:22;;;;;;;;;;;;;;;20.06;36.96;97663.84;5073158;28;1505;-48
2020/12/28 03:03:48;;;;;;;;;;;;;;;20.06;37.00;97673.00;5075260;28;1898;-48
2020/12/28 03:06:13;;;;;;;;;;;;;;;20.05;36.83;97679.09;5074665;28;1273;-48
2020/12/28 03:08:38;;;;;;;;;;;;;;;20.05;36.98;97679.88;5074775;28;1059;-48
2020/12/28 03:11:03;;;;;;;;;;;;;;;20.05;36.83;97687.50;5074765;28;1039;-48
2020/12/28 03:13:28;;;;;;;;;;;;;;;20.04;36.94;97675.53;5072281;28;1640;-48
2020/12/28 03:15:54;;;;;;;;;;;;;;;20.04;36.93;97681.13;5054266;28;1269;-48
2020/12/28 03:18:19;;;;;;;;;;;;;;;20.03;36.94;97679.56;5055219;28;950;-48
2020/12/28 03:20:44;;;;;;;;;;;;;;;20.04;36.99;97683.16;5054386;28;873;-48
2020/12/28 03:23:10;;;;;;;;;;;;;;;20.03;36.86;97690.78;5058728;28;1964;-48
2020/12/28 03:25:35;;;;;;;;;;;;;;;20.02;36.79;97689.25;5074318;28;903;-48
2020/12/28 03:28:00;;;;;;;;;;;;;;;20.04;36.97;97680.38;5074878;28;1278;-48
2020/12/28 03:30:25;;;;;;;;;;;;;;;20.01;36.87;97693.28;5062641;28;1747;-48
2020/12/28 03:32:50;;;;;;;;;;;;;;;20.01;36.81;97698.91;5059043;28;919;-48
2020/12/28 03:35:16;;;;;;;;;;;;;;;20.01;37.13;97704.50;5058265;28;925;-48
2020/12/28 03:37:41;;;;;;;;;;;;;;;20.00;36.79;97700.16;5058373;28;1266;-47
2020/12/28 03:40:06;;;;;;;;;;;;;;;20.00;36.85;97700.16;5058413;28;959;-48
2020/12/28 03:42:31;;;;;;;;;;;;;;;20.00;37.02;97704.97;5058360;28;1965;-48
2020/12/28 03:44:57;;;;;;;;;;;;;;;20.00;36.81;97704.97;5058939;28;1557;-48
2020/12/28 03:47:22;;;;;;;;;;;;;;;20.00;36.84;97702.97;5058257;28;1301;-49
2020/12/28 03:49:47;;;;;;;;;;;;;;;19.99;36.86;97717.44;5074823;28;1442;-47
2020/12/28 03:52:13;;;;;;;;;;;;;;;19.99;37.00;97717.44;5077964;28;1010;-49
2020/12/28 03:54:38;;;;;;;;;;;;;;;19.98;36.88;97710.28;5077680;28;1071;-47
2020/12/28 03:57:04;;;;;;;;;;;;;;;19.97;37.08;97706.72;5077964;28;1254;-48
2020/12/28 03:59:29;;;;;;;;;;;;;;;19.98;36.87;97707.50;5076123;28;1469;-50
2020/12/28 04:01:54;;;;;;;;;;;;;;;19.96;36.82;97712.81;5078629;28;936;-48
2020/12/28 04:04:19;;;;;;;;;;;;;;;19.97;36.90;97717.13;5078296;28;1898;-48
2020/12/28 04:06:45;;;;;;;;;;;;;;;19.96;36.91;97710.78;5077460;28;1286;-48
2020/12/28 04:09:10;;;;;;;;;;;;;;;19.96;36.93;97715.59;5077874;28;920;-48
2020/12/28 04:11:35;;;;;;;;;;;;;;;19.95;36.97;97714.84;5077969;28;928;-49
2020/12/28 04:14:00;;;;;;;;;;;;;;;19.95;36.99;97726.03;5070206;28;1520;-48
2020/12/28 04:16:25;;;;;;;;;;;;;;;19.95;36.90;97714.84;5057704;28;1337;-48
2020/12/28 04:18:51;;;;;;;;;;;;;;;19.95;37.00;97720.44;5058323;28;909;-48
2020/12/28 04:21:16;;;;;;;;;;;;;;;19.94;36.89;97718.88;5057644;28;1001;-48
2020/12/28 04:23:41;;;;;;;;;;;;;;;19.94;37.00;97721.69;5057256;28;1955;-48
2020/12/28 04:26:06;;;;;;;;;;;;;;;19.93;37.05;97720.13;5057317;28;1278;-49
2020/12/28 04:28:32;;;;;;;;;;;;;;;19.93;37.03;97722.94;5057584;28;1513;-48
2020/12/28 04:30:57;;;;;;;;;;;;;;;19.93;36.81;97722.94;5057226;28;1000;-47
2020/12/28 04:33:23;;;;;;;;;;;;;;;19.92;36.84;97716.56;5063395;28;1465;-48
2020/12/28 04:35:48;;;;;;;;;;;;;;;19.91;36.92;97709.41;5077384;28;1277;-48
2020/12/28 04:38:13;;;;;;;;;;;;;;;19.91;36.85;97709.41;5073065;28;1489;-48
2020/12/28 04:40:38;;;;;;;;;;;;;;;19.91;36.89;97700.25;5056664;28;872;-48
2020/12/28 04:43:09;;;;;;;;;;;;;;;19.91;37.03;97709.41;5057433;28;1967;-48
2020/12/28 04:45:34;;;;;;;;;;;;;;;19.91;36.98;97714.25;5057417;28;1012;-49
2020/12/28 04:47:59;;;;;;;;;;;;;;;19.91;36.85;97711.44;5057478;28;1337;-48
2020/12/28 04:50:25;;;;;;;;;;;;;;;19.90;37.02;97705.09;5057091;28;810;-48
2020/12/28 04:52:50;;;;;;;;;;;;;;;19.90;36.93;97707.88;5058017;28;1625;-49
2020/12/28 04:55:16;;;;;;;;;;;;;;;19.89;36.85;97700.72;5056702;28;885;-47
2020/12/28 04:57:41;;;;;;;;;;;;;;;19.89;37.05;97711.16;5056970;28;1250;-47
2020/12/28 05:00:06;;;;;;;;;;;;;;;19.88;37.01;97710.41;5059223;28;1625;-48
2020/12/28 05:02:32;;;;;;;;;;;;;;;19.88;36.95;97704.00;5057086;28;1902;-48
2020/12/28 05:05:06;;;;;;;;;;;;;;;19.88;36.94;97709.59;5056716;28;1059;-49
2020/12/28 05:07:33;;;;;;;;;;;;;;;19.87;36.87;97705.28;5057047;28;1349;-48
2020/12/28 05:09:59;;;;;;;;;;;;;;;19.87;36.85;97713.69;5057177;28;1699;-47
2020/12/28 05:12:24;;;;;;;;;;;;;;;19.87;36.93;97710.88;5056597;28;1032;-48
2020/12/28 05:14:49;;;;;;;;;;;;;;;19.86;37.03;97710.13;5069482;28;1622;-48
2020/12/28 05:17:14;;;;;;;;;;;;;;;19.86;37.03;97710.13;5077111;28;1357;-48
2020/12/28 05:19:39;;;;;;;;;;;;;;;19.86;37.05;97712.13;5073461;28;1399;-48
2020/12/28 05:22:05;;;;;;;;;;;;;;;19.85;37.04;97716.19;5056786;28;885;-48
2020/12/28 05:24:30;;;;;;;;;;;;;;;19.85;36.93;97719.75;5071431;28;1961;-47
2020/12/28 05:26:57;;;;;;;;;;;;;;;19.85;36.95;97716.97;5076504;28;1361;-47
2020/12/28 05:29:24;;;;;;;;;;;;;;;19.85;36.92;97719.00;5061804;28;1477;-48
2020/12/28 05:31:51;;;;;;;;;;;;;;;19.84;37.02;97718.19;5056665;28;992;-48
2020/12/28 05:34:17;;;;;;;;;;;;;;;19.84;37.06;97717.44;5056372;28;1004;-47
2020/12/28 05:36:44;;;;;;;;;;;;;;;19.84;36.86;97720.25;5056311;28;1325;-48
2020/12/28 05:39:13;;;;;;;;;;;;;;;19.83;37.06;97719.47;5056383;28;851;-48
2020/12/28 05:41:38;;;;;;;;;;;;;;;19.82;36.90;97723.53;5055805;28;1067;-48
2020/12/28 05:44:10;;;;;;;;;;;;;;;19.82;36.90;97715.13;5069226;28;1898;-47
2020/12/28 05:46:36;;;;;;;;;;;;;;;19.83;36.86;97732.69;5075919;28;1348;-48
2020/12/28 05:49:04;;;;;;;;;;;;;;;19.82;36.95;97733.94;5062443;28;1568;-48
2020/12/28 05:51:32;;;;;;;;;;;;;;;19.82;36.89;97719.97;5055974;28;1012;-47
2020/12/28 05:54:00;;;;;;;;;;;;;;;19.82;36.92;97736.75;5054674;28;868;-47
2020/12/28 05:56:26;;;;;;;;;;;;;;;19.81;37.03;97732.41;5072199;28;1498;-47
2020/12/28 05:58:51;;;;;;;;;;;;;;;19.80;36.84;97726.03;5073725;28;1641;-49
2020/12/28 06:01:17;;;;;;;;;;;;;;;19.80;37.12;97720.44;5075673;28;992;-49
2020/12/28 06:03:43;;;;;;;;;;;;;;;19.80;36.92;97726.03;5075498;28;1968;-47
2020/12/28 06:06:08;;;;;;;;;;;;;;;19.79;37.11;97727.28;5075606;28;1361;-47
2020/12/28 06:08:33;;;;;;;;;;;;;;;19.80;36.89;97725.28;5076068;28;836;-49
2020/12/28 06:11:05;;;;;;;;;;;;;;;19.79;36.81;97727.28;5075708;28;960;-46
2020/12/28 06:13:30;;;;;;;;;;;;;;;19.78;36.97;97733.34;5067976;28;1457;-47
2020/12/28 06:15:59;;;;;;;;;;;;;;;19.80;36.89;97730.88;5055005;28;1369;-47
2020/12/28 06:18:24;;;;;;;;;;;;;;;19.79;36.88;97730.06;5061837;28;1755;-47
2020/12/28 06:20:49;;;;;;;;;;;;;;;19.80;36.89;97733.66;5075676;28;863;-49
2020/12/28 06:23:23;;;;;;;;;;;;;;;19.79;36.85;97734.91;5075658;28;1910;-49
2020/12/28 06:25:52;;;;;;;;;;;;;;;19.79;36.79;97740.50;5075065;28;1368;-49
2020/12/28 06:28:27;;;;;;;;;;;;;;;19.78;36.83;97745.34;5062444;28;1486;-49
2020/12/28 06:30:53;;;;;;;;;;;;;;;19.79;36.98;97746.09;5055316;28;800;-49
2020/12/28 06:33:18;;;;;;;;;;;;;;;19.78;36.90;97742.53;5055485;28;996;-49
2020/12/28 06:35:43;;;;;;;;;;;;;;;19.78;37.01;97744.56;5054857;28;1373;-49
2020/12/28 06:38:09;;;;;;;;;;;;;;;19.79;36.82;97752.47;5055417;28;966;-49
2020/12/28 06:40:35;;;;;;;;;;;;;;;19.79;36.92;97752.47;5055475;28;972;-50
2020/12/28 06:43:06;;;;;;;;;;;;;;;19.78;37.07;97748.16;5066585;28;1964;-49
2020/12/28 06:45:32;;;;;;;;;;;;;;;19.78;36.92;97739.75;5074940;28;861;-49
2020/12/28 06:47:57;;;;;;;;;;;;;;;19.78;36.92;97745.34;5074778;28;1282;-49
2020/12/28 06:50:22;;;;;;;;;;;;;;;19.77;36.93;97746.59;5075291;28;934;-50
2020/12/28 06:52:51;;;;;;;;;;;;;;;19.77;36.86;97757.00;5075402;28;976;-49
2020/12/28 06:55:16;;;;;;;;;;;;;;;19.77;37.14;97757.78;5071718;28;1668;-49
2020/12/28 06:57:41;;;;;;;;;;;;;;;19.78;36.92;97764.94;5074692;28;1349;-49
2020/12/28 07:00:11;;;;;;;;;;;;;;;19.78;37.00;97770.53;5075070;28;814;-49
2020/12/28 07:02:37;;;;;;;;;;;;;;;19.78;37.08;97764.94;5074190;28;1964;-49
2020/12/28 07:05:03;;;;;;;;;;;;;;;19.78;37.19;97764.16;5054485;28;905;-49
2020/12/28 07:07:38;;;;;;;;;;;;;;;19.77;37.01;97768.97;5054438;28;1368;-49
2020/12/28 07:10:04;;;;;;;;;;;;;;;19.77;37.00;97777.38;5035056;28;853;-49
2020/12/28 07:12:29;;;;;;;;;;;;;;;19.78;37.20;97775.34;5035038;28;1059;-49
2020/12/28 07:15:00;;;;;;;;;;;;;;;19.77;37.05;97774.56;5051904;28;1696;-49
2020/12/28 07:17:26;;;;;;;;;;;;;;;19.77;36.89;97779.41;5074942;28;1302;-49
2020/12/28 07:19:59;;;;;;;;;;;;;;;19.77;36.88;97791.38;5075118;28;987;-49
2020/12/28 07:22:24;;;;;;;;;;;;;;;19.78;36.92;97783.75;5074685;28;1909;-49
2020/12/28 07:24:49;;;;;;;;;;;;;;;19.77;37.06;97791.38;5073823;28;1323;-49
2020/12/28 07:27:14;;;;;;;;;;;;;;;19.77;36.97;97785.78;5074726;28;1265;-49
2020/12/28 07:29:40;;;;;;;;;;;;;;;19.78;36.93;97794.94;5074851;28;888;-48
2020/12/28 07:32:05;;;;;;;;;;;;;;;19.77;36.94;97801.81;5074952;28;805;-49
2020/12/28 07:34:31;;;;;;;;;;;;;;;19.77;36.86;97807.41;5074305;28;846;-49
2020/12/28 07:36:56;;;;;;;;;;;;;;;19.76;36.96;97803.84;5074816;28;1262;-49
2020/12/28 07:39:22;;;;;;;;;;;;;;;19.77;37.12;97810.97;5061413;28;1689;-49
2020/12/28 07:41:47;;;;;;;;;;;;;;;19.76;36.92;97815.03;5054586;28;1082;-49
2020/12/28 07:44:13;;;;;;;;;;;;;;;19.77;37.06;97813.00;5054660;28;1963;-49
2020/12/28 07:46:39;;;;;;;;;;;;;;;19.77;37.01;97813.75;5069393;28;1666;-49
2020/12/28 07:49:39;;;;;;;;;;;;;;;19.77;36.92;97816.56;5074263;28;880;-49
2020/12/28 07:52:10;;;;;;;;;;;;;;;19.77;36.92;97821.41;5005123;28;1591;-49
2020/12/28 07:54:54;;;;;;;;;;;;;;;19.77;37.06;97816.56;5062263;28;1571;-48
2020/12/28 07:57:25;;;;;;;;;;;;;;;19.77;36.93;97821.41;5073334;28;1304;-48
2020/12/28 07:59:50;;;;;;;;;;;;;;;19.77;36.97;97821.41;5074852;28;996;-48
2020/12/28 08:02:21;;;;;;;;;;;;;;;19.76;36.94;97820.63;5074308;28;1967;-48
2020/12/28 08:04:47;;;;;;;;;;;;;;;19.76;36.94;97812.22;5074162;28;1011;-49
2020/12/28 08:07:14;;;;;;;;;;;;;;;19.77;36.94;97813.75;5074420;28;1274;-49
2020/12/28 08:09:39;;;;;;;;;;;;;;;19.77;36.93;97810.97;5074572;28;1143;-50
2020/12/28 08:12:05;;;;;;;;;;;;;;;19.77;37.01;97819.38;5063182;28;1477;-48
2020/12/28 08:14:30;;;;;;;;;;;;;;;19.77;37.09;97824.97;5053861;28;1490;-49
2020/12/28 08:16:55;;;;;;;;;;;;;;;19.78;37.01;97828.53;5056035;28;1258;-49
2020/12/28 08:19:27;;;;;;;;;;;;;;;19.77;37.06;97832.59;5057727;28;1020;-49
2020/12/28 08:21:53;;;;;;;;;;;;;;;19.77;36.94;97835.38;5057946;28;1525;-48
2020/12/28 08:24:19;;;;;;;;;;;;;;;19.77;37.01;97841.00;5077912;28;1972;-49
2020/12/28 08:26:44;;;;;;;;;;;;;;;19.77;36.91;97846.59;5077794;28;1273;-49
2020/12/28 08:29:10;;;;;;;;;;;;;;;19.77;37.07;97841.00;5074786;28;1430;-49
2020/12/28 08:31:36;;;;;;;;;;;;;;;19.77;36.93;97841.75;5057663;28;904;-49
2020/12/28 08:34:27;;;;;;;;;;;;;;;19.76;36.96;97843.03;5057275;28;907;-49
2020/12/28 08:36:54;;;;;;;;;;;;;;;19.77;37.14;97846.59;5053724;28;1783;-48
2020/12/28 08:39:22;;;;;;;;;;;;;;;19.77;37.04;97844.56;5057562;28;1008;-49
2020/12/28 08:41:59;;;;;;;;;;;;;;;19.77;37.06;97841.75;5063782;28;1740;-49
2020/12/28 08:44:29;;;;;;;;;;;;;;;19.77;37.01;97829.78;5076853;28;1902;-49
2020/12/28 08:46:55;;;;;;;;;;;;;;;19.77;37.07;97838.97;5076278;28;1482;-48
2020/12/28 08:49:27;;;;;;;;;;;;;;;19.78;36.96;97840.50;5077140;28;869;-49
2020/12/28 08:51:53;;;;;;;;;;;;;;;19.77;36.93;97843.78;5059890;28;1721;-48
2020/12/28 08:54:27;;;;;;;;;;;;;;;19.78;36.90;97848.13;5057195;28;858;-48
2020/12/28 08:56:53;;;;;;;;;;;;;;;19.79;37.08;97860.88;5073172;28;1681;-49
2020/12/28 08:59:18;;;;;;;;;;;;;;;19.78;36.88;97859.31;5076633;28;1032;-49
2020/12/28 09:01:44;;;;;;;;;;;;;;;19.78;36.83;97860.09;5077535;28;997;-49
2020/12/28 09:04:09;;;;;;;;;;;;;;;19.78;37.05;97853.72;5061247;28;1902;-48
2020/12/28 09:06:34;;;;;;;;;;;;;;;19.77;36.90;97866.94;5056426;28;1262;-49
2020/12/28 09:09:00;;;;;;;;;;;;;;;19.76;36.95;97861.81;5056612;28;943;-49
2020/12/28 09:11:25;;;;;;;;;;;;;;;19.74;36.92;97859.50;5063129;28;1394;-48
2020/12/28 09:13:50;;;;;;;;;;;;;;;19.75;36.86;97866.66;5059356;28;1677;-49
2020/12/28 09:16:15;;;;;;;;;;;;;;;19.73;36.59;97861.50;5056476;28;1291;-49
2020/12/28 09:18:40;;;;;;;;;;;;;;;19.75;36.41;97866.66;5058250;28;1515;-48
2020/12/28 09:21:06;;;;;;;;;;;;;;;19.77;37.23;97869.75;5062779;28;1610;-50
2020/12/28 09:23:31;;;;;;;;;;;;;;;19.77;36.84;97875.34;5057661;28;1898;-49
2020/12/28 09:25:59;;;;;;;;;;;;;;;19.78;36.73;97878.91;5056370;28;1334;-48
2020/12/28 09:28:24;;;;;;;;;;;;;;;19.76;36.97;97882.22;5056858;28;946;-48
2020/12/28 09:30:49;;;;;;;;;;;;;;;19.77;36.67;97886.53;5056765;28;885;-47
2020/12/28 09:33:14;;;;;;;;;;;;;;;19.77;36.75;97892.13;5057923;28;1757;-48
2020/12/28 09:35:40;;;;;;;;;;;;;;;19.77;36.77;97892.13;5056334;28;981;-49
2020/12/28 09:38:05;;;;;;;;;;;;;;;19.77;36.92;97889.34;5056200;28;1447;-47
2020/12/28 09:40:30;;;;;;;;;;;;;;;19.77;36.83;97889.34;5056420;28;1035;-48
2020/12/28 09:42:58;;;;;;;;;;;;;;;19.77;36.96;97891.38;5056082;28;1889;-49
2020/12/28 09:45:36;;;;;;;;;;;;;;;19.77;36.85;97891.38;5059853;28;1607;-48
2020/12/28 09:48:01;;;;;;;;;;;;;;;19.77;36.71;97892.13;5076081;28;1456;-49
2020/12/28 09:50:26;;;;;;;;;;;;;;;19.77;36.83;97885.78;5075292;28;1426;-48
2020/12/28 09:52:51;;;;;;;;;;;;;;;19.77;37.11;97882.97;5055561;28;932;-48
2020/12/28 09:55:17;;;;;;;;;;;;;;;19.77;36.86;97891.38;5056504;28;1563;-47
2020/12/28 09:57:42;;;;;;;;;;;;;;;19.76;37.06;97896.22;5055503;28;1337;-48
2020/12/28 10:00:07;;;;;;;;;;;;;;;19.76;36.98;97901.00;5056312;28;839;-48
2020/12/28 10:02:32;;;;;;;;;;;;;;;19.77;36.93;97908.94;5055920;28;1906;-49
2020/12/28 10:04:57;;;;;;;;;;;;;;;19.76;36.96;97907.41;5055316;28;884;-49
2020/12/28 10:07:23;;;;;;;;;;;;;;;19.76;36.85;97910.22;5055871;28;1372;-50
2020/12/28 10:09:48;;;;;;;;;;;;;;;19.76;36.41;97906.59;5059349;28;1438;-51
2020/12/28 10:12:13;;;;;;;;;;;;;;;19.75;36.52;97911.44;5075349;28;901;-48
2020/12/28 10:14:38;;;;;;;;;;;;;;;19.75;36.61;97911.44;5075299;28;1007;-48
2020/12/28 10:17:04;;;;;;;;;;;;;;;19.76;36.80;97903.81;5076090;28;1341;-48
2020/12/28 10:19:29;;;;;;;;;;;;;;;19.77;36.85;97905.38;5076014;28;1152;-47
2020/12/28 10:21:58;;;;;;;;;;;;;;;19.76;36.84;97903.81;5074884;28;1505;-48
2020/12/28 10:24:23;;;;;;;;;;;;;;;19.74;36.32;97912.69;5075260;28;1956;-47
2020/12/28 10:26:51;;;;;;;;;;;;;;;19.74;36.25;97904.28;5065913;28;1776;-49
2020/12/28 10:29:16;;;;;;;;;;;;;;;19.75;36.43;97903.03;5055671;28;1011;-48
2020/12/28 10:31:41;;;;;;;;;;;;;;;19.76;36.78;97906.59;5055668;28;1004;-51
2020/12/28 10:34:07;;;;;;;;;;;;;;;19.76;36.72;97907.41;5061419;28;1668;-49
2020/12/28 10:36:32;;;;;;;;;;;;;;;19.75;36.84;97908.66;5054948;28;1294;-49
2020/12/28 10:38:57;;;;;;;;;;;;;;;19.73;36.85;97911.88;5054934;28;891;-49
2020/12/28 10:41:26;;;;;;;;;;;;;;;19.74;36.90;97912.69;5055296;28;1644;-49
2020/12/28 10:43:51;;;;;;;;;;;;;;;19.73;36.66;97919.53;5055746;28;1898;-49
2020/12/28 10:46:17;;;;;;;;;;;;;;;19.73;36.62;97908.31;5054950;28;1345;-48
2020/12/28 10:48:42;;;;;;;;;;;;;;;19.73;36.70;97900.69;5055222;28;991;-49
2020/12/28 10:51:10;;;;;;;;;;;;;;;19.73;36.63;97911.13;5055229;28;855;-49
2020/12/28 10:53:36;;;;;;;;;;;;;;;19.72;36.61;97899.16;5054858;28;877;-49
2020/12/28 10:56:02;;;;;;;;;;;;;;;19.72;36.44;97896.38;5056875;28;1601;-50
2020/12/28 10:58:27;;;;;;;;;;;;;;;19.72;36.38;97893.56;5054599;28;982;-49
2020/12/28 11:00:52;;;;;;;;;;;;;;;19.72;36.52;97887.19;5062513;28;1586;-49
2020/12/28 11:03:17;;;;;;;;;;;;;;;19.70;35.25;97889.69;5054990;28;1898;-49
2020/12/28 11:05:43;;;;;;;;;;;;;;;19.62;34.82;97883.69;5054853;28;1241;-48
2020/12/28 11:08:08;;;;;;;;;;;;;;;19.64;35.49;97880.38;5054935;28;865;-48
2020/12/28 11:10:33;;;;;;;;;;;;;;;19.65;35.71;97879.91;5054948;28;837;-50
2020/12/28 11:12:58;;;;;;;;;;;;;;;19.66;36.04;97878.66;5072475;28;1646;-49
2020/12/28 11:15:24;;;;;;;;;;;;;;;19.66;36.14;97878.66;5074707;28;830;-48
2020/12/28 11:17:49;;;;;;;;;;;;;;;19.67;36.11;97880.22;5073677;28;1278;-49
2020/12/28 11:20:15;;;;;;;;;;;;;;;19.68;36.49;97881.00;5074859;28;888;-48
2020/12/28 11:22:41;;;;;;;;;;;;;;;19.67;36.42;97880.22;5074533;28;1893;-49
2020/12/28 11:25:06;;;;;;;;;;;;;;;19.66;36.30;97880.69;5075124;28;1118;-48
2020/12/28 11:27:32;;;;;;;;;;;;;;;19.66;36.50;97881.47;5072830;28;1569;-49
2020/12/28 11:29:58;;;;;;;;;;;;;;;19.66;36.47;97884.25;5054426;28;876;-49
2020/12/28 11:32:23;;;;;;;;;;;;;;;19.67;36.54;97894.22;5055054;28;981;-49
2020/12/28 11:34:48;;;;;;;;;;;;;;;19.69;36.48;97896.53;5054351;28;868;-48
2020/12/28 11:37:14;;;;;;;;;;;;;;;19.68;36.48;97897.78;5054609;28;1341;-49
2020/12/28 11:39:39;;;;;;;;;;;;;;;19.68;36.64;97895.00;5056324;28;1774;-49
2020/12/28 11:42:04;;;;;;;;;;;;;;;19.68;36.53;97898.56;5055858;28;1588;-50
2020/12/28 11:44:29;;;;;;;;;;;;;;;19.68;36.35;97901.34;5058523;28;1921;-49
2020/12/28 11:46:55;;;;;;;;;;;;;;;19.68;36.35;97901.34;5073910;28;1274;-49
2020/12/28 11:49:21;;;;;;;;;;;;;;;19.68;36.16;97895.75;5074390;28;813;-48
2020/12/28 11:51:50;;;;;;;;;;;;;;;19.69;36.28;97896.53;5075083;28;1578;-48
2020/12/28 11:54:15;;;;;;;;;;;;;;;19.69;36.29;97899.31;5078396;28;845;-49
2020/12/28 11:56:40;;;;;;;;;;;;;;;19.70;36.27;97903.69;5064459;28;1456;-49
2020/12/28 11:59:05;;;;;;;;;;;;;;;19.72;36.01;97901.97;5058439;28;984;-48
2020/12/28 12:01:36;;;;;;;;;;;;;;;19.74;36.38;97893.09;5064345;28;1512;-47
2020/12/28 12:04:02;;;;;;;;;;;;;;;19.75;36.42;97896.69;5077958;28;1898;-50
2020/12/28 12:06:27;;;;;;;;;;;;;;;19.76;35.95;97892.63;5077150;28;2138;-48
2020/12/28 12:11:36;;;;;;;;;;;;;;;19.75;36.17;97894.66;5038523;28;936;-47
2020/12/28 12:14:02;;;;;;;;;;;;;;;19.75;36.24;97900.25;5038280;28;915;-48
2020/12/28 12:16:27;;;;;;;;;;;;;;;19.77;36.21;97914.53;5037671;28;1369;-47
2020/12/28 12:18:52;;;;;;;;;;;;;;;19.77;36.41;97920.13;5069259;28;1687;-47
2020/12/28 12:21:18;;;;;;;;;;;;;;;19.78;36.61;97920.91;5077862;28;896;-47
2020/12/28 12:23:43;;;;;;;;;;;;;;;19.79;36.97;97922.47;5077631;28;1890;-46
2020/12/28 12:26:09;;;;;;;;;;;;;;;19.78;36.84;97930.09;5077249;28;1360;-48
2020/12/28 12:28:34;;;;;;;;;;;;;;;19.78;36.77;97932.88;5067442;28;1858;-48
2020/12/28 12:31:00;;;;;;;;;;;;;;;19.79;37.15;97940.03;5060706;28;1743;-47
2020/12/28 12:33:25;;;;;;;;;;;;;;;19.80;36.83;97946.41;5077298;28;919;-48
2020/12/28 12:35:50;;;;;;;;;;;;;;;19.79;37.29;97937.22;5077673;28;1290;-48
2020/12/28 12:38:15;;;;;;;;;;;;;;;19.82;38.13;97941.09;5077758;28;896;-48
2020/12/28 12:40:41;;;;;;;;;;;;;;;19.81;37.00;97943.13;5077432;28;825;-49
2020/12/28 12:43:06;;;;;;;;;;;;;;;19.82;37.26;97938.31;5076170;28;1902;-52
2020/12/28 12:45:31;;;;;;;;;;;;;;;19.83;37.42;97945.44;5077300;28;869;-49
2020/12/28 12:47:56;;;;;;;;;;;;;;;19.82;37.05;97950.28;5061626;28;1853;-50
2020/12/28 12:50:21;;;;;;;;;;;;;;;19.87;37.56;97951.66;5063774;28;1678;-50
2020/12/28 12:52:47;;;;;;;;;;;;;;;19.86;37.11;97953.69;5060176;28;1560;-50
2020/12/28 12:55:12;;;;;;;;;;;;;;;19.85;36.89;97938.13;5064723;28;1531;-51
2020/12/28 12:57:37;;;;;;;;;;;;;;;19.86;37.03;97942.47;5056543;28;1361;-50